createdAt,value
2019-01-16T00:02:59.804Z,7.73
2019-01-16T00:06:21.659Z,7.70
2019-01-16T00:09:34.870Z,7.78
2019-01-16T00:13:13.155Z,7.69
2019-01-16T00:16:36.883Z,7.69
2019-01-16T00:19:58.530Z,7.64
2019-01-16T00:23:18.502Z,7.70
2019-01-16T00:26:40.407Z,7.69
2019-01-16T00:30:18.374Z,7.63
2019-01-16T00:33:44.277Z,7.65
2019-01-16T00:37:14.270Z,7.64
2019-01-16T00:40:26.497Z,7.62
2019-01-16T00:43:41.543Z,7.61
2019-01-16T00:47:03.213Z,7.66
2019-01-16T00:50:25.001Z,7.64
2019-01-16T00:53:48.023Z,7.69
2019-01-16T00:57:26.069Z,7.76
2019-01-16T01:00:48.017Z,7.65
2019-01-16T01:04:09.824Z,7.73
2019-01-16T01:07:24.212Z,7.79
2019-01-16T01:10:47.194Z,7.65
2019-01-16T01:14:06.116Z,7.76
2019-01-16T01:17:28.790Z,7.74
2019-01-16T01:20:50.462Z,7.69
2019-01-16T01:24:09.902Z,7.64
2019-01-16T01:27:32.815Z,7.70
2019-01-16T01:30:53.970Z,7.68
2019-01-16T01:34:15.899Z,7.75
2019-01-16T01:37:54.245Z,7.72
2019-01-16T01:41:20.534Z,7.49
2019-01-16T01:44:46.566Z,7.51
2019-01-16T01:48:12.759Z,7.59
2019-01-16T01:51:29.514Z,7.58
2019-01-16T01:54:42.139Z,7.46
2019-01-16T01:58:00.253Z,7.32
2019-01-16T02:01:29.705Z,7.33
2019-01-16T02:04:51.039Z,7.23
2019-01-16T02:08:13.345Z,7.33
2019-01-16T02:11:35.325Z,7.31
2019-01-16T02:15:01.190Z,7.30
2019-01-16T02:18:14.317Z,7.33
2019-01-16T02:21:43.336Z,7.33
2019-01-16T02:25:04.903Z,7.33
2019-01-16T02:28:21.947Z,7.35
2019-01-16T02:31:54.030Z,7.30
2019-01-16T02:35:15.750Z,7.36
2019-01-16T02:38:53.941Z,7.33
2019-01-16T02:42:17.340Z,7.24
2019-01-16T02:45:39.128Z,7.22
2019-01-16T02:49:14.391Z,7.25
2019-01-16T02:52:40.082Z,7.27
2019-01-16T02:56:02.909Z,7.21
2019-01-16T02:59:18.499Z,7.26
2019-01-16T03:02:40.226Z,7.22
2019-01-16T03:05:57.326Z,7.11
2019-01-16T03:09:29.249Z,7.22
2019-01-16T03:12:46.304Z,7.13
2019-01-16T03:16:27.308Z,7.19
2019-01-16T03:19:49.745Z,7.28
2019-01-16T03:23:11.765Z,7.22
2019-01-16T03:26:33.447Z,7.19
2019-01-16T03:30:02.438Z,7.23
2019-01-16T03:33:23.946Z,7.23
2019-01-16T03:36:49.158Z,7.35
2019-01-16T03:40:15.223Z,7.33
2019-01-16T03:43:28.321Z,7.30
2019-01-16T03:46:40.075Z,7.33
2019-01-16T03:49:55.063Z,7.31
2019-01-16T03:53:17.406Z,7.35
2019-01-16T03:56:46.179Z,7.33
2019-01-16T04:00:06.990Z,7.31
2019-01-16T04:03:25.387Z,7.23
2019-01-16T04:07:00.648Z,7.30
2019-01-16T04:10:30.724Z,7.27
2019-01-16T04:13:47.029Z,7.31
2019-01-16T04:17:11.723Z,7.22
2019-01-16T04:20:24.851Z,7.33
2019-01-16T04:23:43.188Z,7.28
2019-01-16T04:27:11.947Z,7.31
2019-01-16T04:30:31.563Z,7.37
2019-01-16T04:33:53.331Z,7.37
2019-01-16T04:37:11.959Z,7.38
2019-01-16T04:40:35.901Z,7.34
2019-01-16T04:43:51.327Z,7.38
2019-01-16T04:47:32.731Z,7.33
2019-01-16T04:50:55.722Z,7.26
2019-01-16T04:54:31.146Z,7.32
2019-01-16T04:57:54.075Z,7.41
2019-01-16T05:01:28.373Z,7.45
2019-01-16T05:04:50.634Z,7.32
2019-01-16T05:08:25.433Z,7.32
2019-01-16T05:11:47.045Z,7.33
2019-01-16T05:15:15.793Z,7.34
2019-01-16T05:18:37.567Z,7.33
2019-01-16T05:22:00.715Z,7.36
2019-01-16T05:25:29.939Z,7.31
2019-01-16T05:28:58.886Z,7.36
2019-01-16T05:32:20.438Z,7.37
2019-01-16T05:35:43.335Z,7.37
2019-01-16T05:39:06.351Z,7.44
2019-01-16T05:42:35.400Z,7.33
2019-01-16T05:45:50.394Z,7.38
2019-01-16T05:49:13.281Z,7.27
2019-01-16T05:52:51.409Z,7.32
2019-01-16T05:56:13.431Z,7.41
2019-01-16T05:59:35.001Z,7.53
2019-01-16T06:03:16.404Z,7.39
2019-01-16T06:06:37.413Z,7.41
2019-01-16T06:10:01.618Z,7.51
2019-01-16T06:13:36.623Z,7.53
2019-01-16T06:16:51.201Z,7.57
2019-01-16T06:20:23.377Z,7.59
2019-01-16T06:23:45.307Z,7.60
2019-01-16T06:27:14.238Z,7.61
2019-01-16T06:30:36.271Z,7.57
2019-01-16T06:33:58.137Z,7.56
2019-01-16T06:37:21.024Z,7.58
2019-01-16T06:40:43.859Z,7.48
2019-01-16T06:44:15.895Z,7.49
2019-01-16T06:47:45.860Z,7.59
2019-01-16T06:51:01.352Z,7.47
2019-01-16T06:54:24.830Z,7.50
2019-01-16T06:57:46.842Z,7.50
2019-01-16T07:00:58.771Z,7.62
2019-01-16T07:04:17.823Z,7.51
2019-01-16T07:07:39.940Z,7.54
2019-01-16T07:11:01.912Z,7.59
2019-01-16T07:14:13.696Z,7.58
2019-01-16T07:17:35.669Z,7.50
2019-01-16T07:20:56.209Z,7.66
2019-01-16T07:24:19.914Z,7.63
2019-01-16T07:27:40.694Z,7.61
2019-01-16T07:30:58.227Z,7.55
2019-01-16T07:34:18.203Z,7.60
2019-01-16T07:37:44.230Z,7.65
2019-01-16T07:40:57.371Z,7.65
2019-01-16T07:44:18.891Z,7.57
2019-01-16T07:47:32.549Z,7.55
2019-01-16T07:51:01.366Z,7.45
2019-01-16T07:54:33.364Z,7.65
2019-01-16T07:57:59.222Z,7.47
2019-01-16T08:01:22.299Z,7.64
2019-01-16T08:04:44.474Z,7.59
2019-01-16T08:08:10.297Z,7.58
2019-01-16T08:11:24.905Z,7.53
2019-01-16T08:14:46.342Z,7.70
2019-01-16T08:18:12.487Z,7.58
2019-01-16T08:21:34.093Z,7.61
2019-01-16T08:24:51.518Z,7.61
2019-01-16T08:28:15.607Z,7.68
2019-01-16T08:31:56.915Z,7.71
2019-01-16T08:35:22.577Z,7.62
2019-01-16T08:38:40.764Z,7.63
2019-01-16T08:42:03.474Z,7.73
2019-01-16T08:45:37.328Z,7.72
2019-01-16T08:49:00.149Z,7.67
2019-01-16T08:52:38.562Z,7.76
2019-01-16T08:56:16.559Z,7.76
2019-01-16T08:59:38.722Z,7.78
2019-01-16T09:02:52.082Z,7.71
2019-01-16T09:06:14.988Z,7.68
2019-01-16T09:09:40.647Z,7.69
2019-01-16T09:13:02.199Z,7.80
2019-01-16T09:16:19.938Z,7.85
2019-01-16T09:19:36.730Z,7.91
2019-01-16T09:23:05.829Z,7.89
2019-01-16T09:26:31.626Z,7.77
2019-01-16T09:29:44.768Z,7.83
2019-01-16T09:33:13.702Z,7.79
2019-01-16T09:36:30.991Z,7.75
2019-01-16T09:40:09.153Z,7.71
2019-01-16T09:43:30.626Z,7.73
2019-01-16T09:46:44.648Z,7.64
2019-01-16T09:50:07.503Z,7.72
2019-01-16T09:53:39.771Z,7.72
2019-01-16T09:56:55.996Z,7.64
2019-01-16T10:00:37.598Z,7.67
2019-01-16T10:04:04.698Z,7.66
2019-01-16T10:07:45.872Z,7.56
2019-01-16T10:11:17.433Z,7.54
2019-01-16T10:14:43.237Z,7.65
2019-01-16T10:18:10.556Z,7.73
2019-01-16T10:21:36.132Z,7.70
2019-01-16T10:24:52.896Z,7.72
2019-01-16T10:28:09.921Z,7.62
2019-01-16T10:31:39.111Z,7.79
2019-01-16T10:35:05.460Z,7.75
2019-01-16T10:38:46.555Z,7.80
2019-01-16T10:42:08.156Z,7.69
2019-01-16T10:45:31.551Z,7.65
2019-01-16T10:48:49.897Z,7.70
2019-01-16T10:52:31.144Z,7.68
2019-01-16T10:55:59.644Z,7.67
2019-01-16T10:59:37.485Z,7.56
2019-01-16T11:02:59.075Z,7.54
2019-01-16T11:06:17.443Z,7.49
2019-01-16T11:09:48.801Z,7.49
2019-01-16T11:13:10.828Z,7.46
2019-01-16T11:16:32.563Z,7.43
2019-01-16T11:19:54.388Z,7.44
2019-01-16T11:23:17.169Z,7.45
2019-01-16T11:26:43.255Z,7.43
2019-01-16T11:30:09.004Z,7.44
2019-01-16T11:33:35.826Z,7.59
2019-01-16T11:37:09.453Z,7.53
2019-01-16T11:40:32.559Z,7.56
2019-01-16T11:43:54.426Z,7.53
2019-01-16T11:47:17.569Z,7.58
2019-01-16T11:50:31.959Z,7.61
2019-01-16T11:53:53.845Z,7.63
2019-01-16T11:57:15.825Z,7.66
2019-01-16T12:00:31.424Z,7.68
2019-01-16T12:04:00.377Z,7.66
2019-01-16T12:07:13.620Z,7.62
2019-01-16T12:10:48.917Z,7.60
2019-01-16T12:14:10.691Z,7.66
2019-01-16T12:17:39.104Z,7.67
2019-01-16T12:21:00.768Z,7.64
2019-01-16T12:24:25.405Z,7.71
2019-01-16T12:27:48.419Z,7.65
2019-01-16T12:31:13.052Z,7.60
2019-01-16T12:34:35.986Z,7.62
2019-01-16T12:38:17.301Z,7.57
2019-01-16T12:41:47.944Z,7.48
2019-01-16T12:45:09.806Z,7.45
2019-01-16T12:48:39.051Z,7.40
2019-01-16T12:51:50.667Z,7.49
2019-01-16T12:55:12.909Z,7.41
2019-01-16T12:58:30.566Z,7.41
2019-01-16T13:01:59.706Z,7.46
2019-01-16T13:05:20.655Z,7.43
2019-01-16T13:08:46.992Z,7.42
2019-01-16T13:12:08.875Z,7.38
2019-01-16T13:15:30.491Z,7.41
2019-01-16T13:18:58.533Z,7.42
2019-01-16T13:22:12.004Z,7.39
2019-01-16T13:25:39.843Z,7.39
2019-01-16T13:29:01.965Z,7.38
2019-01-16T13:32:18.776Z,7.37
2019-01-16T13:35:40.680Z,7.39
2019-01-16T13:39:02.764Z,7.39
2019-01-16T13:42:14.329Z,7.31
2019-01-16T13:45:40.197Z,7.32
2019-01-16T13:49:01.998Z,7.32
2019-01-16T13:52:34.997Z,7.37
2019-01-16T13:55:56.653Z,7.30
2019-01-16T13:59:23.680Z,7.26
2019-01-16T14:02:46.561Z,7.33
2019-01-16T14:06:03.230Z,7.31
2019-01-16T14:09:33.615Z,7.32
2019-01-16T14:12:55.267Z,7.32
2019-01-16T14:16:20.238Z,7.33
2019-01-16T14:19:48.275Z,7.27
2019-01-16T14:23:09.728Z,7.29
2019-01-16T14:26:32.365Z,7.21
2019-01-16T14:29:54.076Z,7.25
2019-01-16T14:33:15.713Z,7.21
2019-01-16T14:36:38.845Z,7.26
2019-01-16T14:40:01.747Z,7.17
2019-01-16T14:43:31.022Z,7.10
2019-01-16T14:46:45.189Z,7.09
2019-01-16T14:49:56.445Z,7.04
2019-01-16T14:53:19.291Z,7.08
2019-01-16T14:56:41.308Z,7.07
2019-01-16T15:00:04.327Z,7.05
2019-01-16T15:03:27.294Z,7.01
2019-01-16T15:06:50.705Z,7.05
2019-01-16T15:10:11.755Z,7.03
2019-01-16T15:13:23.727Z,6.95
2019-01-16T15:16:58.497Z,6.94
2019-01-16T15:20:19.588Z,6.89
2019-01-16T15:23:41.937Z,6.97
2019-01-16T15:27:08.120Z,6.94
2019-01-16T15:30:40.229Z,6.94
2019-01-16T15:34:02.229Z,6.99
2019-01-16T15:37:24.527Z,6.94
2019-01-16T15:40:48.378Z,6.87
2019-01-16T15:44:17.371Z,6.92
2019-01-16T15:47:39.961Z,6.84
2019-01-16T15:51:12.352Z,6.85
2019-01-16T15:54:27.403Z,6.80
2019-01-16T15:57:38.578Z,6.84
2019-01-16T16:01:02.249Z,6.84
2019-01-16T16:04:21.918Z,6.81
2019-01-16T16:07:51.186Z,6.75
2019-01-16T16:11:05.502Z,6.77
2019-01-16T16:14:41.118Z,6.67
2019-01-16T16:18:02.926Z,6.69
2019-01-16T16:21:32.177Z,6.69
2019-01-16T16:25:03.231Z,6.64
2019-01-16T16:28:38.213Z,6.67
2019-01-16T16:32:01.634Z,6.78
2019-01-16T16:35:36.878Z,6.73
2019-01-16T16:39:06.092Z,6.68
2019-01-16T16:42:26.761Z,6.68
2019-01-16T16:45:40.346Z,6.66
2019-01-16T16:49:06.220Z,6.63
2019-01-16T16:52:31.763Z,6.60
2019-01-16T16:55:47.029Z,6.65
2019-01-16T16:59:11.638Z,6.57
2019-01-16T17:02:46.916Z,6.58
2019-01-16T17:06:09.824Z,6.57
2019-01-16T17:09:32.743Z,6.65
2019-01-16T17:12:58.604Z,6.68
2019-01-16T17:16:17.775Z,6.68
2019-01-16T17:19:39.604Z,6.69
2019-01-16T17:23:02.470Z,6.69
2019-01-16T17:26:24.546Z,6.68
2019-01-16T17:29:46.253Z,6.61
2019-01-16T17:33:06.575Z,6.68
2019-01-16T17:36:26.920Z,6.70
2019-01-16T17:39:49.759Z,6.74
2019-01-16T17:43:11.653Z,6.65
2019-01-16T17:46:40.754Z,6.61
2019-01-16T17:50:02.172Z,6.57
2019-01-16T17:53:28.220Z,6.55
2019-01-16T17:56:56.346Z,6.56
2019-01-16T18:00:18.108Z,6.58
2019-01-16T18:03:45.319Z,6.50
2019-01-16T18:07:02.350Z,6.46
2019-01-16T18:10:26.607Z,6.50
2019-01-16T18:13:45.902Z,6.42
2019-01-16T18:17:11.703Z,6.39
2019-01-16T18:20:41.560Z,6.42
2019-01-16T18:24:02.926Z,6.39
2019-01-16T18:27:24.499Z,6.33
2019-01-16T18:30:50.424Z,6.28
2019-01-16T18:34:06.189Z,6.33
2019-01-16T18:37:37.559Z,6.32
2019-01-16T18:41:00.558Z,6.31
2019-01-16T18:44:17.872Z,6.24
2019-01-16T18:47:52.715Z,6.30
2019-01-16T18:51:15.731Z,6.26
2019-01-16T18:54:48.040Z,6.23
2019-01-16T18:58:01.532Z,6.19
2019-01-16T19:01:23.186Z,6.20
2019-01-16T19:04:35.920Z,6.24
2019-01-16T19:08:04.949Z,6.18
2019-01-16T19:11:37.026Z,6.15
2019-01-16T19:14:58.728Z,6.17
2019-01-16T19:18:20.627Z,6.11
2019-01-16T19:21:39.307Z,6.07
2019-01-16T19:25:08.098Z,6.09
2019-01-16T19:28:28.289Z,6.15
2019-01-16T19:31:49.059Z,6.19
2019-01-16T19:35:09.273Z,6.06
2019-01-16T19:38:34.567Z,6.12
2019-01-16T19:41:56.148Z,6.09
2019-01-16T19:45:15.958Z,6.07
2019-01-16T19:48:44.715Z,6.12
2019-01-16T19:52:01.914Z,6.10
2019-01-16T19:55:28.918Z,6.04
2019-01-16T19:58:57.677Z,5.95
2019-01-16T20:02:26.029Z,6.02
2019-01-16T20:05:43.136Z,6.08
2019-01-16T20:09:01.203Z,6.07
2019-01-16T20:12:22.839Z,6.13
2019-01-16T20:15:42.399Z,6.04
2019-01-16T20:19:04.581Z,6.06
2019-01-16T20:22:33.672Z,6.08
2019-01-16T20:25:47.934Z,5.96
2019-01-16T20:29:09.600Z,5.94
2019-01-16T20:32:41.755Z,5.98
2019-01-16T20:35:54.505Z,5.95
2019-01-16T20:39:11.830Z,5.87
2019-01-16T20:42:23.813Z,5.91
2019-01-16T20:45:50.916Z,5.84
2019-01-16T20:49:24.826Z,5.88
2019-01-16T20:52:41.889Z,5.81
2019-01-16T20:56:02.094Z,5.83
2019-01-16T20:59:24.150Z,5.84
2019-01-16T21:02:45.556Z,5.84
2019-01-16T21:06:07.911Z,5.81
2019-01-16T21:09:32.201Z,5.79
2019-01-16T21:12:57.114Z,5.87
2019-01-16T21:16:19.951Z,5.77
2019-01-16T21:19:34.414Z,5.81
2019-01-16T21:23:03.941Z,5.85
2019-01-16T21:26:25.589Z,5.84
2019-01-16T21:29:48.417Z,5.72
2019-01-16T21:33:17.989Z,5.62
2019-01-16T21:36:40.994Z,5.74
2019-01-16T21:39:53.920Z,5.72
2019-01-16T21:43:22.375Z,5.69
2019-01-16T21:46:38.376Z,5.65
2019-01-16T21:50:16.529Z,5.80
2019-01-16T21:53:48.574Z,5.62
2019-01-16T21:57:16.746Z,5.73
2019-01-16T22:00:58.099Z,5.64
2019-01-16T22:04:14.122Z,5.68
2019-01-16T22:07:33.889Z,5.64
2019-01-16T22:11:05.878Z,5.61
2019-01-16T22:14:18.679Z,5.58
2019-01-16T22:17:50.372Z,5.74
2019-01-16T22:21:16.780Z,5.71
2019-01-16T22:24:51.746Z,5.76
2019-01-16T22:28:05.372Z,5.68
2019-01-16T22:31:26.937Z,5.70
2019-01-16T22:34:58.945Z,5.68
2019-01-16T22:38:10.768Z,5.66
2019-01-16T22:41:22.446Z,5.68
2019-01-16T22:44:42.834Z,5.72
2019-01-16T22:48:02.196Z,5.65
2019-01-16T22:51:31.026Z,5.66
2019-01-16T22:54:56.879Z,5.73
2019-01-16T22:58:19.791Z,5.66
2019-01-16T23:01:41.456Z,5.56
2019-01-16T23:04:55.874Z,5.59
2019-01-16T23:08:05.834Z,5.53
2019-01-16T23:11:25.006Z,5.52
2019-01-16T23:14:47.027Z,5.51
2019-01-16T23:18:16.130Z,5.60
2019-01-16T23:21:43.691Z,5.56
2019-01-16T23:25:12.669Z,5.50
2019-01-16T23:28:31.576Z,5.53
2019-01-16T23:31:57.685Z,5.56
2019-01-16T23:35:12.158Z,5.57
2019-01-16T23:38:36.740Z,5.46
2019-01-16T23:41:58.590Z,5.42
2019-01-16T23:45:21.392Z,5.62
2019-01-16T23:48:48.893Z,5.53
2019-01-16T23:52:11.796Z,5.54
2019-01-16T23:55:46.745Z,5.67
2019-01-16T23:59:00.944Z,5.52
